Occoquan, Virginia
Current Conditions -  °F | °C
As of 5:38 AM on Thursday 27 Nov 2014 (Local Time) from KDAA Reporting Station
Haze Haze  
Wind Chill: 32°   Ceiling: 8000
Heat Index: 32°   Visibility: 4mi
Dew Point: 32°   Wind: 0mph
Humidity: 100%   Direction: NA
Pressure: 30.04"   Gusts: NA
Location:  38.68°N, 77.26°W
Report Text: KDAA 271038Z AUTO 00000KT 4SM R32/4000FT BR SCT060 BKN080 00/00 A3004 RMK AO2
Loading
Personal Weather Stations






























Interactive Weather Map New forecast layout! Learn more

10-Day Weather Forecast

Advertisements
Track Severe Weather on mobile